createdAt,value
2022-09-06T00:00:44.504Z,19.44
2022-09-06T00:03:46.666Z,19.43
2022-09-06T00:06:48.291Z,19.41
2022-09-06T00:09:49.883Z,19.40
2022-09-06T00:12:51.759Z,19.40
2022-09-06T00:15:53.560Z,19.42
2022-09-06T00:18:55.989Z,19.44
2022-09-06T00:21:57.678Z,19.49
2022-09-06T00:24:59.428Z,19.51
2022-09-06T00:28:03.544Z,19.47
2022-09-06T00:31:20.688Z,19.45
2022-09-06T00:34:22.595Z,19.38
2022-09-06T00:37:24.525Z,19.26
2022-09-06T00:40:27.389Z,19.09
2022-09-06T00:43:29.236Z,18.93
2022-09-06T00:46:32.721Z,18.81
2022-09-06T00:49:46.151Z,18.76
2022-09-06T00:52:50.286Z,18.60
2022-09-06T00:55:53.316Z,18.35
2022-09-06T00:58:55.076Z,18.05
2022-09-06T01:01:57.642Z,17.80
2022-09-06T01:05:00.026Z,17.60
2022-09-06T01:08:20.861Z,17.42
2022-09-06T01:11:30.272Z,17.34
2022-09-06T01:14:50.252Z,17.27
2022-09-06T01:18:17.020Z,17.22
2022-09-06T01:21:29.024Z,17.13
2022-09-06T01:24:55.678Z,17.11
2022-09-06T01:28:16.081Z,17.08
2022-09-06T01:31:36.510Z,17.11
2022-09-06T01:34:47.996Z,17.17
2022-09-06T01:37:49.919Z,17.26
2022-09-06T01:40:51.684Z,17.31
2022-09-06T01:43:54.904Z,17.39
2022-09-06T01:47:04.088Z,17.46
2022-09-06T01:50:36.909Z,17.48
2022-09-06T01:54:17.804Z,17.48
2022-09-06T01:57:51.792Z,17.50
2022-09-06T02:01:21.519Z,17.53
2022-09-06T02:04:30.049Z,17.56
2022-09-06T02:07:33.901Z,17.58
2022-09-06T02:10:43.577Z,17.58
2022-09-06T02:13:52.634Z,17.60
2022-09-06T02:16:57.716Z,17.65
2022-09-06T02:20:10.851Z,17.69
2022-09-06T02:23:13.349Z,17.63
2022-09-06T02:26:22.046Z,17.54
2022-09-06T02:29:24.123Z,17.51
2022-09-06T02:32:27.251Z,17.47
2022-09-06T02:35:29.440Z,17.49
2022-09-06T02:38:34.141Z,17.47
2022-09-06T02:41:36.177Z,17.45
2022-09-06T02:44:37.899Z,17.47
2022-09-06T02:47:39.601Z,17.45
2022-09-06T02:50:41.540Z,17.46
2022-09-06T02:53:43.345Z,17.45
2022-09-06T02:56:49.004Z,17.42
2022-09-06T02:59:53.374Z,17.42
2022-09-06T03:02:55.949Z,17.45
2022-09-06T03:05:57.695Z,17.44
2022-09-06T03:09:00.264Z,17.38
2022-09-06T03:12:02.047Z,17.35
2022-09-06T03:15:05.498Z,17.32
2022-09-06T03:18:07.725Z,17.23
2022-09-06T03:21:09.879Z,17.19
2022-09-06T03:24:11.663Z,17.14
2022-09-06T03:27:13.904Z,17.08
2022-09-06T03:30:15.779Z,17.08
2022-09-06T03:33:18.391Z,17.04
2022-09-06T03:36:20.124Z,16.99
2022-09-06T03:39:21.836Z,16.96
2022-09-06T03:42:26.368Z,16.92
2022-09-06T03:45:28.245Z,16.94
2022-09-06T03:48:30.228Z,16.91
2022-09-06T03:51:32.195Z,16.90
2022-09-06T03:54:34.175Z,16.88
2022-09-06T03:57:35.853Z,16.90
2022-09-06T04:00:37.648Z,16.86
2022-09-06T04:03:39.745Z,16.84
2022-09-06T04:06:41.849Z,16.81
2022-09-06T04:09:43.920Z,16.77
2022-09-06T04:12:45.835Z,16.73
2022-09-06T04:15:48.129Z,16.70
2022-09-06T04:18:50.016Z,16.66
2022-09-06T04:21:51.934Z,16.63
2022-09-06T04:24:53.961Z,16.63
2022-09-06T04:27:55.839Z,16.64
2022-09-06T04:31:04.066Z,16.67
2022-09-06T04:34:06.794Z,16.69
2022-09-06T04:37:08.713Z,16.71
2022-09-06T04:40:10.907Z,16.74
2022-09-06T04:43:12.722Z,16.81
2022-09-06T04:46:30.676Z,16.84
2022-09-06T04:49:32.466Z,16.88
2022-09-06T04:52:34.253Z,16.89
2022-09-06T04:55:36.151Z,16.92
2022-09-06T04:58:38.045Z,17.00
2022-09-06T05:01:39.922Z,16.96
2022-09-06T05:04:41.769Z,16.97
2022-09-06T05:08:14.961Z,16.96
2022-09-06T05:12:21.132Z,17.04
2022-09-06T05:15:23.603Z,17.07
2022-09-06T05:18:25.315Z,17.13
2022-09-06T05:21:27.124Z,17.15
2022-09-06T05:24:28.890Z,17.20
2022-09-06T05:27:30.720Z,17.21
2022-09-06T05:30:32.552Z,17.20
2022-09-06T05:33:34.491Z,17.21
2022-09-06T05:36:36.325Z,17.23
2022-09-06T05:39:38.107Z,17.22
2022-09-06T05:42:41.253Z,17.20
2022-09-06T05:45:43.396Z,17.21
2022-09-06T05:48:52.120Z,17.22
2022-09-06T05:51:53.756Z,17.16
2022-09-06T05:54:55.653Z,17.14
2022-09-06T05:57:57.293Z,17.12
2022-09-06T06:01:17.874Z,17.09
2022-09-06T06:04:21.778Z,17.05
2022-09-06T06:07:23.844Z,16.84
2022-09-06T06:10:25.894Z,16.62
2022-09-06T06:13:30.104Z,16.42
2022-09-06T06:16:31.925Z,16.26
2022-09-06T06:19:33.689Z,16.12
2022-09-06T06:22:35.545Z,15.99
2022-09-06T06:25:37.320Z,15.95
2022-09-06T06:28:39.954Z,15.92
2022-09-06T06:31:42.868Z,15.89
2022-09-06T06:34:44.706Z,15.88
2022-09-06T06:37:46.343Z,15.92
2022-09-06T06:40:48.092Z,16.03
2022-09-06T06:43:53.924Z,16.17
2022-09-06T06:46:57.911Z,16.28
2022-09-06T06:49:59.962Z,16.47
2022-09-06T06:53:02.796Z,16.56
2022-09-06T06:56:27.888Z,16.61
2022-09-06T06:59:30.014Z,16.65
2022-09-06T07:02:32.105Z,16.60
2022-09-06T07:09:02.351Z,16.55
2022-09-06T07:12:04.345Z,16.61
2022-09-06T07:15:06.342Z,16.52
2022-09-06T07:18:08.244Z,16.46
2022-09-06T07:21:37.577Z,16.45
2022-09-06T07:24:39.868Z,16.39
2022-09-06T07:27:47.529Z,16.31
2022-09-06T07:30:53.963Z,16.19
2022-09-06T07:33:55.839Z,16.04
2022-09-06T07:36:57.664Z,15.96
2022-09-06T07:39:59.466Z,15.86
2022-09-06T07:43:01.364Z,15.92
2022-09-06T07:46:13.569Z,16.04
2022-09-06T07:49:15.411Z,16.15
2022-09-06T07:55:39.250Z,16.33
2022-09-06T07:58:41.320Z,16.48
2022-09-06T08:01:43.361Z,16.69
2022-09-06T08:04:48.642Z,16.93
2022-09-06T08:11:15.327Z,17.35
2022-09-06T08:14:17.170Z,17.55
2022-09-06T08:17:19.010Z,17.69
2022-09-06T08:20:20.931Z,17.90
2022-09-06T08:23:22.794Z,18.13
2022-09-06T08:26:26.109Z,18.43
2022-09-06T08:29:28.085Z,18.73
2022-09-06T08:32:33.540Z,19.02
2022-09-06T08:35:35.330Z,19.26
2022-09-06T08:38:37.955Z,19.50
2022-09-06T08:42:03.819Z,19.73
2022-09-06T08:45:09.480Z,19.96
2022-09-06T08:48:11.474Z,20.12
2022-09-06T08:51:51.661Z,20.37
2022-09-06T08:55:23.445Z,20.55
2022-09-06T08:58:49.069Z,20.70
2022-09-06T09:02:13.017Z,20.79
2022-09-06T09:05:40.196Z,20.88
2022-09-06T09:09:01.851Z,21.05
2022-09-06T09:12:03.828Z,21.16
2022-09-06T09:15:10.165Z,21.38
2022-09-06T09:18:12.033Z,21.72
2022-09-06T09:21:17.189Z,21.88
2022-09-06T09:24:18.976Z,22.07
2022-09-06T09:27:28.419Z,22.34
2022-09-06T09:30:48.771Z,22.47
2022-09-06T09:33:51.479Z,22.72
2022-09-06T09:40:53.789Z,22.76
2022-09-06T09:44:17.812Z,22.56
2022-09-06T09:47:33.177Z,22.52
2022-09-06T09:50:35.842Z,22.60
2022-09-06T09:53:50.806Z,22.75
2022-09-06T09:56:52.990Z,22.83
2022-09-06T10:00:01.708Z,22.66
2022-09-06T10:03:30.079Z,22.36
2022-09-06T10:10:01.837Z,22.12
2022-09-06T10:13:26.754Z,22.25
2022-09-06T10:16:43.550Z,22.47
2022-09-06T10:19:46.548Z,22.68
2022-09-06T10:23:13.112Z,22.80
2022-09-06T10:26:29.296Z,22.97
2022-09-06T10:29:53.245Z,23.10
2022-09-06T10:33:05.177Z,23.11
2022-09-06T10:36:08.137Z,23.15
2022-09-06T10:39:28.549Z,23.18
2022-09-06T10:42:49.454Z,23.34
2022-09-06T10:46:09.554Z,23.34
2022-09-06T10:49:16.943Z,23.15
2022-09-06T10:52:43.611Z,22.80
2022-09-06T10:56:14.406Z,22.57
2022-09-06T10:59:41.669Z,22.22
2022-09-06T11:06:40.335Z,22.65
2022-09-06T11:09:46.275Z,23.22
2022-09-06T11:13:10.016Z,23.74
2022-09-06T11:16:32.737Z,24.20
2022-09-06T11:20:13.253Z,24.39
2022-09-06T11:23:39.740Z,24.35
2022-09-06T11:27:11.856Z,24.50
2022-09-06T11:30:15.798Z,24.67
2022-09-06T11:33:27.660Z,24.66
2022-09-06T11:36:46.692Z,24.56
2022-09-06T11:40:32.371Z,24.35
2022-09-06T11:43:51.764Z,24.09
2022-09-06T11:47:01.065Z,24.06
2022-09-06T11:50:53.946Z,24.00
2022-09-06T11:54:06.582Z,24.03
2022-09-06T11:57:08.213Z,24.18
2022-09-06T12:00:19.880Z,24.30
2022-09-06T12:04:06.171Z,24.43
2022-09-06T12:07:11.803Z,24.52
2022-09-06T12:10:31.814Z,24.61
2022-09-06T12:13:45.712Z,24.82
2022-09-06T12:17:11.562Z,25.03
2022-09-06T12:20:48.118Z,25.12
2022-09-06T12:23:49.985Z,25.27
2022-09-06T12:27:08.410Z,25.48
2022-09-06T12:30:13.747Z,25.76
2022-09-06T12:33:27.696Z,25.93
2022-09-06T12:36:33.176Z,25.98
2022-09-06T12:39:37.742Z,26.02
2022-09-06T12:42:47.715Z,26.14
2022-09-06T12:45:52.511Z,26.21
2022-09-06T12:49:12.276Z,26.38
2022-09-06T12:52:19.043Z,26.57
2022-09-06T12:55:38.739Z,26.62
2022-09-06T12:58:41.002Z,26.75
2022-09-06T13:02:13.823Z,26.95
2022-09-06T13:05:15.748Z,27.18
2022-09-06T13:08:39.973Z,27.43
2022-09-06T13:11:52.225Z,27.61
2022-09-06T13:15:01.119Z,27.75
2022-09-06T13:18:23.998Z,27.88
2022-09-06T13:21:33.182Z,28.00
2022-09-06T13:24:35.376Z,28.14
2022-09-06T13:27:37.719Z,28.24
2022-09-06T13:30:49.541Z,28.35
2022-09-06T13:33:59.550Z,28.40
2022-09-06T13:37:10.749Z,28.46
2022-09-06T13:41:16.111Z,28.58
2022-09-06T13:44:21.981Z,28.69
2022-09-06T13:47:28.849Z,28.75
2022-09-06T13:50:30.790Z,28.88
2022-09-06T13:53:33.935Z,28.98
2022-09-06T13:56:39.290Z,29.10
2022-09-06T13:59:42.829Z,29.19
2022-09-06T14:02:46.618Z,29.25
2022-09-06T14:05:48.936Z,29.36
2022-09-06T14:09:06.303Z,29.45
2022-09-06T14:12:10.209Z,29.54
2022-09-06T14:15:13.435Z,29.60
2022-09-06T14:18:16.521Z,29.70
2022-09-06T14:21:18.244Z,29.73
2022-09-06T14:24:20.154Z,29.83
2022-09-06T14:27:22.350Z,29.78
2022-09-06T14:30:24.435Z,29.77
2022-09-06T14:33:26.164Z,29.87
2022-09-06T14:36:29.823Z,29.91
2022-09-06T14:39:31.613Z,29.87
2022-09-06T14:42:33.466Z,29.97
2022-09-06T14:45:35.886Z,29.97
2022-09-06T14:48:41.623Z,29.94
2022-09-06T14:51:45.958Z,29.97
2022-09-06T14:54:47.956Z,30.00
2022-09-06T14:57:50.193Z,29.94
2022-09-06T15:00:52.820Z,30.01
2022-09-06T15:04:00.133Z,30.00
2022-09-06T15:07:02.056Z,30.08
2022-09-06T15:10:05.036Z,30.20
2022-09-06T15:13:06.770Z,30.23
2022-09-06T15:16:10.465Z,30.31
2022-09-06T15:19:13.097Z,30.34
2022-09-06T15:22:14.730Z,30.26
2022-09-06T15:25:16.743Z,30.18
2022-09-06T15:28:19.764Z,30.05
2022-09-06T15:31:21.727Z,30.00
2022-09-06T15:34:25.141Z,30.04
2022-09-06T15:37:27.053Z,30.03
2022-09-06T15:40:28.825Z,30.01
2022-09-06T15:43:32.988Z,29.93
2022-09-06T15:46:34.641Z,29.88
2022-09-06T15:49:37.418Z,29.89
2022-09-06T15:52:39.396Z,29.86
2022-09-06T15:55:59.928Z,29.80
2022-09-06T15:59:01.955Z,29.74
2022-09-06T16:02:03.839Z,29.70
2022-09-06T16:05:06.353Z,29.61
2022-09-06T16:08:08.374Z,29.42
2022-09-06T16:11:13.871Z,29.33
2022-09-06T16:14:16.726Z,29.21
2022-09-06T16:17:18.456Z,29.12
2022-09-06T16:20:20.394Z,29.00
2022-09-06T16:23:22.751Z,28.88
2022-09-06T16:26:26.952Z,28.74
2022-09-06T16:29:28.739Z,28.51
2022-09-06T16:32:30.678Z,28.38
2022-09-06T16:35:32.532Z,28.24
2022-09-06T16:38:35.075Z,28.06
2022-09-06T16:41:40.861Z,27.88
2022-09-06T16:44:43.201Z,27.68
2022-09-06T16:47:46.725Z,27.53
2022-09-06T16:50:48.709Z,27.37
2022-09-06T16:53:51.980Z,27.17
2022-09-06T16:56:54.101Z,27.01
2022-09-06T16:59:55.866Z,26.87
2022-09-06T17:02:58.751Z,26.69
2022-09-06T17:06:00.651Z,26.43
2022-09-06T17:09:02.441Z,26.20
2022-09-06T17:12:04.921Z,25.93
2022-09-06T17:15:07.405Z,25.64
2022-09-06T17:18:09.149Z,25.31
2022-09-06T17:21:11.602Z,25.02
2022-09-06T17:24:13.538Z,24.80
2022-09-06T17:27:15.993Z,24.59
2022-09-06T17:30:17.855Z,24.37
2022-09-06T17:33:21.233Z,24.18
2022-09-06T17:36:25.178Z,23.97
2022-09-06T17:39:26.936Z,23.76
2022-09-06T17:42:31.779Z,23.56
2022-09-06T17:45:43.009Z,23.33
2022-09-06T17:48:44.813Z,23.17
2022-09-06T17:51:47.260Z,22.99
2022-09-06T17:54:49.308Z,22.80
2022-09-06T17:57:50.999Z,22.64
2022-09-06T18:00:52.945Z,22.47
2022-09-06T18:03:54.733Z,22.29
2022-09-06T18:06:56.447Z,22.14
2022-09-06T18:09:58.698Z,21.99
2022-09-06T18:13:00.372Z,21.89
2022-09-06T18:16:03.639Z,21.80
2022-09-06T18:19:07.647Z,21.70
2022-09-06T18:22:09.638Z,21.60
2022-09-06T18:25:11.427Z,21.55
2022-09-06T18:28:13.152Z,21.46
2022-09-06T18:31:18.312Z,21.41
2022-09-06T18:34:20.103Z,21.33
2022-09-06T18:37:21.985Z,21.25
2022-09-06T18:40:23.631Z,21.16
2022-09-06T18:43:31.966Z,21.11
2022-09-06T18:46:36.262Z,21.05
2022-09-06T18:49:43.220Z,21.01
2022-09-06T18:52:45.606Z,20.97
2022-09-06T18:55:51.788Z,20.91
2022-09-06T18:59:02.087Z,20.85
2022-09-06T19:02:04.162Z,20.77
2022-09-06T19:05:06.341Z,20.74
2022-09-06T19:08:08.054Z,20.70
2022-09-06T19:11:17.099Z,20.61
2022-09-06T19:14:19.148Z,20.53
2022-09-06T19:17:21.020Z,20.46
2022-09-06T19:20:23.586Z,20.36
2022-09-06T19:23:26.860Z,20.28
2022-09-06T19:26:31.622Z,20.21
2022-09-06T19:29:33.705Z,20.14
2022-09-06T19:32:35.673Z,20.08
2022-09-06T19:35:43.745Z,20.01
2022-09-06T19:39:05.003Z,19.93
2022-09-06T19:42:07.474Z,19.84
2022-09-06T19:45:09.699Z,19.76
2022-09-06T19:48:11.734Z,19.71
2022-09-06T19:51:20.232Z,19.63
2022-09-06T19:54:22.172Z,19.54
2022-09-06T19:57:23.815Z,19.46
2022-09-06T20:00:27.164Z,19.40
2022-09-06T20:03:29.031Z,19.34
2022-09-06T20:06:31.067Z,19.29
2022-09-06T20:09:33.054Z,19.24
2022-09-06T20:12:34.937Z,19.20
2022-09-06T20:15:37.717Z,19.13
2022-09-06T20:18:40.253Z,19.09
2022-09-06T20:21:42.645Z,19.05
2022-09-06T20:24:44.527Z,19.02
2022-09-06T20:27:46.191Z,18.98
2022-09-06T20:30:49.123Z,18.94
2022-09-06T20:33:50.865Z,18.93
2022-09-06T20:36:52.440Z,18.92
2022-09-06T20:39:55.687Z,18.89
2022-09-06T20:42:57.672Z,18.88
2022-09-06T20:46:00.369Z,18.86
2022-09-06T20:49:05.457Z,18.83
2022-09-06T20:52:07.415Z,18.81
2022-09-06T20:55:10.001Z,18.80
2022-09-06T20:58:11.786Z,18.79
2022-09-06T21:01:16.018Z,18.78
2022-09-06T21:04:17.742Z,18.76
2022-09-06T21:07:19.476Z,18.75
2022-09-06T21:10:22.297Z,18.73
2022-09-06T21:13:25.389Z,18.72
2022-09-06T21:16:29.144Z,18.72
2022-09-06T21:19:31.093Z,18.71
2022-09-06T21:22:33.153Z,18.70
2022-09-06T21:25:36.184Z,18.71
2022-09-06T21:28:40.942Z,18.70
2022-09-06T21:31:42.990Z,18.69
2022-09-06T21:34:44.651Z,18.66
2022-09-06T21:37:46.556Z,18.63
2022-09-06T21:40:48.654Z,18.60
2022-09-06T21:43:58.425Z,18.57
2022-09-06T21:47:00.595Z,18.52
2022-09-06T21:50:02.330Z,18.49
2022-09-06T21:53:03.869Z,18.46
2022-09-06T21:56:06.583Z,18.41
2022-09-06T21:59:08.898Z,18.38
2022-09-06T22:02:11.121Z,18.36
2022-09-06T22:05:12.960Z,18.36
2022-09-06T22:08:14.737Z,18.34
2022-09-06T22:11:26.281Z,18.35
2022-09-06T22:14:28.132Z,18.33
2022-09-06T22:17:29.876Z,18.29
2022-09-06T22:20:31.721Z,18.28
2022-09-06T22:23:33.886Z,18.25
2022-09-06T22:26:37.142Z,18.26
2022-09-06T22:29:38.955Z,18.26
2022-09-06T22:32:41.614Z,18.26
2022-09-06T22:35:43.469Z,18.26
2022-09-06T22:38:45.085Z,18.26
2022-09-06T22:41:47.086Z,18.26
2022-09-06T22:44:49.823Z,18.29
2022-09-06T22:47:51.606Z,18.30
2022-09-06T22:50:53.374Z,18.33
2022-09-06T22:53:55.355Z,18.34
2022-09-06T22:56:57.606Z,18.35
2022-09-06T23:00:00.296Z,18.35
2022-09-06T23:03:02.006Z,18.30
2022-09-06T23:06:04.188Z,18.28
2022-09-06T23:09:06.502Z,18.24
2022-09-06T23:12:08.336Z,18.22
2022-09-06T23:15:10.063Z,18.18
2022-09-06T23:18:12.218Z,18.13
2022-09-06T23:21:23.519Z,18.08
2022-09-06T23:24:25.997Z,18.06
2022-09-06T23:27:27.892Z,18.09
2022-09-06T23:30:30.153Z,18.03
2022-09-06T23:33:35.074Z,17.99
2022-09-06T23:36:36.925Z,17.94
2022-09-06T23:39:38.707Z,17.91
2022-09-06T23:42:40.392Z,17.89
2022-09-06T23:45:42.321Z,17.85
2022-09-06T23:48:44.354Z,17.81
2022-09-06T23:51:46.233Z,17.76
2022-09-06T23:54:48.029Z,17.73
2022-09-06T23:57:51.150Z,17.71
